Главная страница
METAR-TAF:

METAR-TAF

Аэропорты :

Вроцлавский аэропорт имени Коперника

Вроцлав, Польша

широта: 51-06N, долгота: 016-53E, высота над уровнем моря: 120 м

Текущие метеонаблюдения

Эта сводка был подготовлена 8 часа и 11 минут назад, в 05:30 UTC
Ветер 4 Узел от северо-западный
Температура 18°C
Влажность 77%
Давление 1020 hPa
Видимость 10 км и более
Рассеянная облачность на высоте 2300 фута
Рассеянная облачность на высоте 3000 фута
небольшой дождь

METAR: EPWR 210530Z 31004KT 9999 -RA BKN023 BKN030 18/14 Q1020

Время: 15:41 (13:41 UTC)

Прогноз

Эта сводка был подготовлена 8 часа и 11 минут назад, в 05:30 UTC
Прогноз действительный с 21-го 06 UTC до 22-го 06 UTC
Ветер 8 Узел от северно-северо-западный
Видимость 10 км и более
Рассеянная облачность на высоте 3500 фута
изменения
С 22-го 03 UTC до 22-го 06 UTC
Ветер 10 Узел от восточно-юго-восточный

TAF: EPWR 210530Z 2106/2206 33008KT 9999 BKN035 BECMG 2203/2206 11010KT

Метеонаблюдения и прогнозы для более 4000 аэропортов (сводки METAR и TAF).

Имеющиеся станции представлены на карте желтыми и красными точками.

Чтобы увидеть название станции, наведите на нее мышь.

Затем щелкните, чтобы увидеть метеонаблюдения и метеопрогнозы.

Управление картой: чтобы увеличить масштаб, щелкните зеленые кнопки с черным крестиком; чтобы уменьшить масштаб, щелкните зеленую кнопку с тире; для просмотра соседних карт щелкайте зеленые стрелки.


METAR-TAF: